Calgary, Canada
Current Conditions -  °F | °C
As of 12:00 AM on Thursday 23 Oct 2014 (Local Time) from CYYC Reporting Station
Broken Clouds Broken Clouds  
Wind Chill: 43°   Ceiling: 25000
Heat Index: 43°   Visibility: 15mi
Dew Point: 32°   Wind: 3mph
Humidity: 66%   Direction: 40°NE
Pressure: 29.61"   Gusts: NA
Location:  51.05°N, 114.06°W
Report Text: CYYC 230600Z 04003KT 290V070 15SM BKN250 06/M00 A2961 RMK CI5 SLP043 DENSITY ALT 3700FT
Loading
Personal Weather Stations






























Interactive Weather Map
Tropical Storm Tracking
New forecast layout! Learn more

10-Day Weather Forecast

Advertisements
Track Severe Weather on mobile